createdAt,value
2024-04-08T00:01:28.620Z,16.05
2024-04-08T00:06:31.596Z,16.04
2024-04-08T00:11:35.368Z,15.97
2024-04-08T00:16:38.469Z,15.90
2024-04-08T00:21:41.638Z,15.87
2024-04-08T00:26:44.571Z,15.84
2024-04-08T00:31:53.928Z,15.82
2024-04-08T00:36:56.951Z,15.77
2024-04-08T00:42:00.155Z,15.61
2024-04-08T00:47:03.935Z,15.50
2024-04-08T00:52:06.555Z,15.33
2024-04-08T00:57:10.485Z,15.29
2024-04-08T01:02:13.369Z,15.17
2024-04-08T01:07:17.417Z,15.09
2024-04-08T01:12:20.692Z,14.98
2024-04-08T01:17:23.742Z,14.96
2024-04-08T01:22:31.689Z,14.89
2024-04-08T01:27:34.745Z,14.85
2024-04-08T01:32:37.675Z,14.81
2024-04-08T01:37:40.251Z,14.78
2024-04-08T01:42:44.258Z,14.74
2024-04-08T01:47:46.921Z,14.67
2024-04-08T01:52:50.118Z,14.63
2024-04-08T01:57:55.488Z,14.55
2024-04-08T02:02:59.752Z,14.49
2024-04-08T02:08:03.715Z,14.42
2024-04-08T02:13:06.650Z,14.41
2024-04-08T02:18:10.164Z,14.33
2024-04-08T02:23:13.074Z,14.27
2024-04-08T02:28:15.861Z,14.18
2024-04-08T02:33:18.661Z,14.09
2024-04-08T02:38:23.983Z,13.99
2024-04-08T02:43:26.551Z,13.92
2024-04-08T02:48:29.263Z,13.78
2024-04-08T02:53:32.127Z,13.74
2024-04-08T02:58:35.243Z,13.69
2024-04-08T03:03:38.209Z,13.62
2024-04-08T03:08:41.862Z,13.54
2024-04-08T03:13:44.330Z,13.57
2024-04-08T03:18:47.343Z,13.59
2024-04-08T03:23:49.945Z,13.56
2024-04-08T03:28:53.227Z,13.50
2024-04-08T03:33:55.874Z,13.48
2024-04-08T03:38:59.102Z,13.41
2024-04-08T03:44:02.274Z,13.37
2024-04-08T03:49:04.755Z,13.36
2024-04-08T03:54:07.630Z,13.30
2024-04-08T03:59:10.258Z,13.26
2024-04-08T04:04:13.576Z,13.27
2024-04-08T04:09:16.193Z,13.19
2024-04-08T04:14:18.798Z,13.12
2024-04-08T04:19:21.467Z,13.03
2024-04-08T04:24:24.476Z,13.05
2024-04-08T04:29:28.708Z,12.98
2024-04-08T04:34:31.647Z,12.99
2024-04-08T04:39:34.899Z,12.93
2024-04-08T04:44:38.287Z,12.90
2024-04-08T04:49:41.784Z,12.81
2024-04-08T04:54:45.294Z,12.74
2024-04-08T04:59:48.209Z,12.74
2024-04-08T05:04:51.564Z,12.72
2024-04-08T05:09:55.050Z,12.57
2024-04-08T05:14:58.043Z,12.53
2024-04-08T05:20:03.447Z,12.52
2024-04-08T05:25:06.187Z,12.42
2024-04-08T05:30:09.581Z,12.45
2024-04-08T05:35:13.532Z,12.40
2024-04-08T05:40:18.986Z,12.37
2024-04-08T05:45:22.701Z,12.39
2024-04-08T05:50:25.729Z,12.30
2024-04-08T05:55:32.613Z,12.33
2024-04-08T06:00:38.058Z,12.25
2024-04-08T06:05:45.290Z,12.25
2024-04-08T06:10:52.391Z,12.21
2024-04-08T06:15:55.393Z,12.18
2024-04-08T06:21:00.310Z,12.14
2024-04-08T06:26:04.261Z,12.16
2024-04-08T06:31:06.830Z,12.20
2024-04-08T06:36:10.885Z,12.14
2024-04-08T06:41:14.769Z,12.17
2024-04-08T06:46:22.691Z,12.17
2024-04-08T06:51:26.063Z,12.19
2024-04-08T06:56:29.372Z,12.34
2024-04-08T07:01:37.185Z,12.45
2024-04-08T07:06:40.130Z,12.42
2024-04-08T07:11:43.806Z,12.58
2024-04-08T07:16:48.290Z,12.70
2024-04-08T07:21:54.021Z,12.72
2024-04-08T07:27:03.148Z,12.77
2024-04-08T07:32:08.888Z,12.76
2024-04-08T07:37:13.116Z,12.74
2024-04-08T07:42:16.158Z,12.85
2024-04-08T07:47:19.033Z,12.99
2024-04-08T07:52:21.977Z,13.00
2024-04-08T07:57:25.497Z,13.10
2024-04-08T08:02:31.354Z,13.11
2024-04-08T08:07:39.369Z,13.19
2024-04-08T08:12:42.393Z,13.33
2024-04-08T08:17:46.088Z,13.40
2024-04-08T08:22:50.620Z,13.61
2024-04-08T08:27:53.484Z,13.85
2024-04-08T08:32:59.052Z,14.04
2024-04-08T08:38:03.142Z,14.47
2024-04-08T08:43:06.167Z,14.83
2024-04-08T08:48:13.229Z,15.13
2024-04-08T08:53:16.250Z,15.68
2024-04-08T08:58:18.898Z,16.67
2024-04-08T09:03:21.608Z,17.60
2024-04-08T09:08:24.988Z,18.28
2024-04-08T09:13:34.156Z,18.93
2024-04-08T09:18:37.577Z,18.30
2024-04-08T09:23:45.323Z,18.26
2024-04-08T09:28:48.303Z,18.48
2024-04-08T09:33:51.451Z,18.34
2024-04-08T09:38:54.211Z,19.54
2024-04-08T09:43:58.231Z,20.72
2024-04-08T09:49:03.691Z,21.22
2024-04-08T09:54:11.461Z,21.26
2024-04-08T09:59:15.522Z,21.73
2024-04-08T10:04:21.417Z,22.45
2024-04-08T10:09:24.130Z,22.58
2024-04-08T10:14:27.089Z,23.09
2024-04-08T10:19:30.135Z,22.97
2024-04-08T10:24:39.915Z,22.85
2024-04-08T10:29:45.083Z,23.15
2024-04-08T10:34:51.799Z,23.39
2024-04-08T10:39:59.530Z,23.63
2024-04-08T10:45:03.468Z,24.08
2024-04-08T10:50:07.527Z,24.18
2024-04-08T10:55:10.629Z,24.48
2024-04-08T11:00:14.101Z,24.46
2024-04-08T11:05:18.170Z,24.87
2024-04-08T11:10:25.099Z,24.76
2024-04-08T11:15:28.691Z,24.25
2024-04-08T11:20:33.635Z,23.60
2024-04-08T11:25:36.315Z,23.57
2024-04-08T11:30:39.213Z,23.49
2024-04-08T11:35:42.209Z,22.63
2024-04-08T11:40:45.835Z,21.19
2024-04-08T11:45:51.952Z,20.65
2024-04-08T11:50:54.630Z,19.73
2024-04-08T11:55:57.509Z,19.24
2024-04-08T12:01:00.685Z,19.11
2024-04-08T12:06:05.032Z,18.94
2024-04-08T12:11:09.083Z,19.14
2024-04-08T12:16:11.952Z,19.10
2024-04-08T12:21:14.619Z,19.10
2024-04-08T12:26:18.641Z,19.15
2024-04-08T12:31:29.533Z,19.26
2024-04-08T12:36:34.098Z,19.09
2024-04-08T12:41:39.184Z,19.04
2024-04-08T12:46:43.257Z,19.26
2024-04-08T12:51:48.332Z,18.98
2024-04-08T12:56:53.517Z,18.75
2024-04-08T13:01:56.410Z,18.39
2024-04-08T13:06:59.430Z,18.46
2024-04-08T13:12:02.885Z,18.23
2024-04-08T13:17:06.357Z,17.82
2024-04-08T13:22:09.726Z,17.67
2024-04-08T13:27:14.269Z,17.50
2024-04-08T13:32:17.171Z,17.57
2024-04-08T13:37:19.742Z,17.69
2024-04-08T13:42:24.895Z,17.89
2024-04-08T13:47:29.909Z,17.85
2024-04-08T13:52:32.601Z,17.55
2024-04-08T13:57:40.273Z,17.34
2024-04-08T14:02:43.240Z,17.18
2024-04-08T14:07:49.014Z,17.13
2024-04-08T14:12:52.563Z,17.57
2024-04-08T14:17:56.337Z,17.51
2024-04-08T14:23:01.543Z,17.39
2024-04-08T14:28:04.245Z,17.24
2024-04-08T14:33:07.469Z,16.98
2024-04-08T14:38:32.319Z,16.91
2024-04-08T14:43:43.397Z,16.92
2024-04-08T14:48:50.825Z,17.01
2024-04-08T14:53:54.715Z,16.82
2024-04-08T14:58:58.084Z,16.81
2024-04-08T15:04:00.882Z,16.86
2024-04-08T15:09:04.531Z,17.05
2024-04-08T15:14:08.863Z,16.99
2024-04-08T15:19:11.825Z,16.88
2024-04-08T15:24:16.403Z,17.06
2024-04-08T15:29:21.958Z,17.13
2024-04-08T15:34:24.805Z,17.19
2024-04-08T15:39:28.542Z,17.27
2024-04-08T15:44:31.517Z,17.23
2024-04-08T15:49:34.148Z,17.20
2024-04-08T15:54:38.635Z,16.96
2024-04-08T15:59:41.320Z,16.76
2024-04-08T16:04:44.368Z,16.36
2024-04-08T16:09:47.348Z,16.32
2024-04-08T16:14:50.138Z,16.26
2024-04-08T16:19:52.865Z,16.35
2024-04-08T16:24:56.254Z,16.23
2024-04-08T16:29:59.710Z,16.13
2024-04-08T16:35:02.278Z,15.93
2024-04-08T16:40:06.706Z,15.72
2024-04-08T16:45:09.375Z,15.58
2024-04-08T16:50:11.770Z,15.73
2024-04-08T16:55:18.404Z,15.71
2024-04-08T17:00:21.238Z,15.84
2024-04-08T17:05:25.334Z,15.55
2024-04-08T17:10:28.573Z,15.41
2024-04-08T17:15:32.210Z,15.31
2024-04-08T17:20:35.022Z,15.17
2024-04-08T17:25:38.798Z,14.98
2024-04-08T17:30:44.375Z,14.89
2024-04-08T17:35:54.021Z,14.61
2024-04-08T17:41:00.489Z,14.46
2024-04-08T17:46:06.990Z,14.34
2024-04-08T17:51:10.755Z,14.34
2024-04-08T17:56:17.745Z,14.34
2024-04-08T18:01:20.579Z,14.29
2024-04-08T18:06:28.043Z,14.19
2024-04-08T18:11:31.339Z,14.04
2024-04-08T18:16:37.403Z,14.05
2024-04-08T18:21:42.750Z,13.93
2024-04-08T18:26:46.604Z,13.92
2024-04-08T18:31:53.070Z,13.94
2024-04-08T18:36:56.144Z,13.98
2024-04-08T18:41:59.310Z,13.92
2024-04-08T18:47:04.761Z,13.85
2024-04-08T18:52:10.324Z,13.75
2024-04-08T18:57:14.201Z,13.60
2024-04-08T19:02:17.813Z,13.45
2024-04-08T19:07:22.662Z,13.37
2024-04-08T19:12:25.625Z,13.27
2024-04-08T19:17:29.127Z,13.20
2024-04-08T19:22:32.247Z,13.18
2024-04-08T19:27:35.512Z,13.18
2024-04-08T19:32:38.202Z,13.20
2024-04-08T19:37:43.025Z,12.94
2024-04-08T19:42:49.714Z,12.92
2024-04-08T19:47:53.227Z,12.88
2024-04-08T19:52:56.973Z,12.69
2024-04-08T19:58:01.617Z,12.63
2024-04-08T20:03:04.939Z,12.67
2024-04-08T20:08:11.332Z,12.51
2024-04-08T20:13:15.102Z,12.39
2024-04-08T20:18:17.975Z,12.38
2024-04-08T20:23:20.940Z,12.29
2024-04-08T20:28:24.234Z,12.20
2024-04-08T20:33:27.718Z,12.05
2024-04-08T20:38:32.750Z,12.05
2024-04-08T20:43:37.372Z,12.09
2024-04-08T20:48:42.362Z,11.99
2024-04-08T20:53:47.303Z,11.97
2024-04-08T20:58:51.363Z,11.92
2024-04-08T21:03:54.523Z,11.72
2024-04-08T21:08:57.309Z,11.74
2024-04-08T21:13:59.938Z,11.71
2024-04-08T21:19:02.862Z,11.52
2024-04-08T21:24:10.348Z,11.47
2024-04-08T21:29:16.432Z,11.48
2024-04-08T21:34:19.307Z,11.35
2024-04-08T21:39:22.645Z,11.28
2024-04-08T21:44:26.395Z,11.25
2024-04-08T21:49:29.852Z,11.06
2024-04-08T21:54:33.824Z,11.13
2024-04-08T21:59:37.816Z,11.02
2024-04-08T22:04:40.800Z,10.92
2024-04-08T22:09:44.298Z,10.91
2024-04-08T22:14:47.112Z,10.76
2024-04-08T22:19:49.980Z,10.60
2024-04-08T22:24:52.982Z,10.55
2024-04-08T22:29:58.918Z,10.46
2024-04-08T22:35:03.387Z,10.42
2024-04-08T22:40:06.787Z,10.27
2024-04-08T22:45:09.706Z,10.24
2024-04-08T22:50:12.549Z,10.11
2024-04-08T22:55:16.132Z,9.99
2024-04-08T23:00:18.880Z,9.91
2024-04-08T23:05:22.155Z,9.87
2024-04-08T23:10:24.794Z,9.86
2024-04-08T23:15:27.776Z,9.81
2024-04-08T23:20:34.546Z,9.74
2024-04-08T23:25:38.008Z,9.70
2024-04-08T23:30:40.518Z,9.63
2024-04-08T23:35:44.741Z,9.57
2024-04-08T23:40:47.198Z,9.46
2024-04-08T23:45:56.307Z,9.48
2024-04-08T23:51:00.073Z,9.42
2024-04-08T23:56:03.292Z,9.39
